sensor_id;sensor_type;location;lat;lon;timestamp;P1;durP1;ratioP1;P2;durP2;ratioP2
61358;SDS011;47228;46.762;23.598;2023-12-20T00:01:23;37.50;;;18.70;;
61358;SDS011;47228;46.762;23.598;2023-12-20T00:03:51;38.00;;;18.90;;
61358;SDS011;47228;46.762;23.598;2023-12-20T00:06:20;31.30;;;17.20;;
61358;SDS011;47228;46.762;23.598;2023-12-20T00:08:48;35.90;;;19.00;;
61358;SDS011;47228;46.762;23.598;2023-12-20T00:11:17;33.40;;;17.60;;
61358;SDS011;47228;46.762;23.598;2023-12-20T00:13:45;34.90;;;19.10;;
61358;SDS011;47228;46.762;23.598;2023-12-20T00:16:18;34.40;;;18.00;;
61358;SDS011;47228;46.762;23.598;2023-12-20T00:18:46;32.60;;;16.50;;
61358;SDS011;47228;46.762;23.598;2023-12-20T00:21:15;33.80;;;17.70;;
61358;SDS011;47228;46.762;23.598;2023-12-20T00:23:43;32.70;;;17.40;;
61358;SDS011;47228;46.762;23.598;2023-12-20T00:26:12;33.60;;;17.30;;
61358;SDS011;47228;46.762;23.598;2023-12-20T00:28:40;32.90;;;18.30;;
61358;SDS011;47228;46.762;23.598;2023-12-20T00:31:08;35.90;;;18.10;;
61358;SDS011;47228;46.762;23.598;2023-12-20T00:33:36;35.10;;;17.80;;
61358;SDS011;47228;46.762;23.598;2023-12-20T00:36:06;33.10;;;17.40;;
61358;SDS011;47228;46.762;23.598;2023-12-20T00:38:34;34.50;;;17.10;;
61358;SDS011;47228;46.762;23.598;2023-12-20T00:41:02;34.10;;;18.30;;
61358;SDS011;47228;46.762;23.598;2023-12-20T00:43:30;31.80;;;17.00;;
61358;SDS011;47228;46.762;23.598;2023-12-20T00:45:59;31.10;;;17.10;;
61358;SDS011;47228;46.762;23.598;2023-12-20T00:48:28;32.90;;;16.50;;
61358;SDS011;47228;46.762;23.598;2023-12-20T00:50:58;29.20;;;16.50;;
61358;SDS011;47228;46.762;23.598;2023-12-20T00:53:26;31.90;;;17.40;;
61358;SDS011;47228;46.762;23.598;2023-12-20T00:55:55;32.60;;;16.40;;
61358;SDS011;47228;46.762;23.598;2023-12-20T00:58:23;33.70;;;17.80;;
61358;SDS011;47228;46.762;23.598;2023-12-20T01:00:51;33.90;;;16.90;;
61358;SDS011;47228;46.762;23.598;2023-12-20T01:03:20;34.60;;;17.00;;
61358;SDS011;47228;46.762;23.598;2023-12-20T01:05:48;33.40;;;16.30;;
61358;SDS011;47228;46.762;23.598;2023-12-20T01:08:16;32.80;;;16.40;;
61358;SDS011;47228;46.762;23.598;2023-12-20T01:10:45;31.40;;;16.00;;
61358;SDS011;47228;46.762;23.598;2023-12-20T01:13:14;30.10;;;15.90;;
61358;SDS011;47228;46.762;23.598;2023-12-20T01:15:43;30.40;;;16.00;;
61358;SDS011;47228;46.762;23.598;2023-12-20T01:18:11;28.70;;;16.30;;
61358;SDS011;47228;46.762;23.598;2023-12-20T01:20:41;27.40;;;15.20;;
61358;SDS011;47228;46.762;23.598;2023-12-20T01:23:09;28.30;;;15.20;;
61358;SDS011;47228;46.762;23.598;2023-12-20T01:25:37;27.40;;;14.60;;
61358;SDS011;47228;46.762;23.598;2023-12-20T01:28:05;30.60;;;15.70;;
61358;SDS011;47228;46.762;23.598;2023-12-20T01:30:34;28.90;;;15.00;;
61358;SDS011;47228;46.762;23.598;2023-12-20T01:33:03;30.60;;;16.30;;
61358;SDS011;47228;46.762;23.598;2023-12-20T01:35:31;28.70;;;15.70;;
61358;SDS011;47228;46.762;23.598;2023-12-20T01:38:00;26.90;;;14.80;;
61358;SDS011;47228;46.762;23.598;2023-12-20T01:40:28;31.70;;;16.40;;
61358;SDS011;47228;46.762;23.598;2023-12-20T01:45:40;27.20;;;14.40;;
61358;SDS011;47228;46.762;23.598;2023-12-20T01:48:08;27.10;;;13.90;;
61358;SDS011;47228;46.762;23.598;2023-12-20T01:50:39;27.90;;;16.20;;
61358;SDS011;47228;46.762;23.598;2023-12-20T01:53:07;29.40;;;16.00;;
61358;SDS011;47228;46.762;23.598;2023-12-20T01:55:39;28.90;;;15.10;;
61358;SDS011;47228;46.762;23.598;2023-12-20T01:58:08;29.70;;;15.50;;
61358;SDS011;47228;46.762;23.598;2023-12-20T02:00:38;26.00;;;14.00;;
61358;SDS011;47228;46.762;23.598;2023-12-20T02:03:06;30.90;;;15.90;;
61358;SDS011;47228;46.762;23.598;2023-12-20T02:05:35;25.90;;;13.70;;
61358;SDS011;47228;46.762;23.598;2023-12-20T02:08:04;25.90;;;14.30;;
61358;SDS011;47228;46.762;23.598;2023-12-20T02:10:33;25.60;;;14.00;;
61358;SDS011;47228;46.762;23.598;2023-12-20T02:13:02;25.90;;;14.20;;
61358;SDS011;47228;46.762;23.598;2023-12-20T02:15:32;27.70;;;15.50;;
61358;SDS011;47228;46.762;23.598;2023-12-20T02:18:00;29.50;;;14.80;;
61358;SDS011;47228;46.762;23.598;2023-12-20T02:20:28;31.00;;;16.00;;
61358;SDS011;47228;46.762;23.598;2023-12-20T02:22:56;28.10;;;14.10;;
61358;SDS011;47228;46.762;23.598;2023-12-20T02:25:24;28.00;;;15.10;;
61358;SDS011;47228;46.762;23.598;2023-12-20T02:27:53;28.60;;;15.50;;
61358;SDS011;47228;46.762;23.598;2023-12-20T02:30:21;29.90;;;16.00;;
61358;SDS011;47228;46.762;23.598;2023-12-20T02:32:50;27.40;;;15.20;;
61358;SDS011;47228;46.762;23.598;2023-12-20T02:35:19;25.00;;;14.70;;
61358;SDS011;47228;46.762;23.598;2023-12-20T02:37:48;25.50;;;14.20;;
61358;SDS011;47228;46.762;23.598;2023-12-20T02:40:16;27.50;;;14.80;;
61358;SDS011;47228;46.762;23.598;2023-12-20T02:42:44;24.30;;;13.60;;
61358;SDS011;47228;46.762;23.598;2023-12-20T02:45:12;24.90;;;13.50;;
61358;SDS011;47228;46.762;23.598;2023-12-20T02:47:41;28.40;;;15.20;;
61358;SDS011;47228;46.762;23.598;2023-12-20T02:50:09;26.80;;;15.30;;
61358;SDS011;47228;46.762;23.598;2023-12-20T02:52:38;30.00;;;16.10;;
61358;SDS011;47228;46.762;23.598;2023-12-20T02:55:06;31.90;;;15.50;;
61358;SDS011;47228;46.762;23.598;2023-12-20T02:57:34;34.00;;;16.70;;
61358;SDS011;47228;46.762;23.598;2023-12-20T03:00:04;29.70;;;16.90;;
61358;SDS011;47228;46.762;23.598;2023-12-20T03:02:33;29.80;;;15.50;;
61358;SDS011;47228;46.762;23.598;2023-12-20T03:05:01;31.20;;;16.00;;
61358;SDS011;47228;46.762;23.598;2023-12-20T03:07:30;30.20;;;15.00;;
61358;SDS011;47228;46.762;23.598;2023-12-20T03:09:58;34.50;;;17.40;;
61358;SDS011;47228;46.762;23.598;2023-12-20T03:12:46;33.20;;;17.60;;
61358;SDS011;47228;46.762;23.598;2023-12-20T03:15:14;29.10;;;15.40;;
61358;SDS011;47228;46.762;23.598;2023-12-20T03:17:42;26.70;;;14.10;;
61358;SDS011;47228;46.762;23.598;2023-12-20T03:20:11;26.80;;;14.60;;
61358;SDS011;47228;46.762;23.598;2023-12-20T03:22:40;28.00;;;14.60;;
61358;SDS011;47228;46.762;23.598;2023-12-20T03:25:08;32.20;;;15.80;;
61358;SDS011;47228;46.762;23.598;2023-12-20T03:27:39;31.30;;;16.00;;
61358;SDS011;47228;46.762;23.598;2023-12-20T03:30:07;31.50;;;16.20;;
61358;SDS011;47228;46.762;23.598;2023-12-20T03:32:37;29.10;;;15.00;;
61358;SDS011;47228;46.762;23.598;2023-12-20T03:35:06;27.90;;;16.20;;
61358;SDS011;47228;46.762;23.598;2023-12-20T03:37:35;27.10;;;15.20;;
61358;SDS011;47228;46.762;23.598;2023-12-20T03:40:03;28.80;;;14.70;;
61358;SDS011;47228;46.762;23.598;2023-12-20T03:42:31;26.70;;;14.10;;
61358;SDS011;47228;46.762;23.598;2023-12-20T03:45:00;28.30;;;14.90;;
61358;SDS011;47228;46.762;23.598;2023-12-20T03:47:29;25.80;;;14.30;;
61358;SDS011;47228;46.762;23.598;2023-12-20T03:49:57;28.20;;;14.80;;
61358;SDS011;47228;46.762;23.598;2023-12-20T03:52:26;29.30;;;15.40;;
61358;SDS011;47228;46.762;23.598;2023-12-20T03:54:55;28.60;;;15.70;;
61358;SDS011;47228;46.762;23.598;2023-12-20T03:57:24;26.40;;;15.20;;
61358;SDS011;47228;46.762;23.598;2023-12-20T03:59:52;25.80;;;13.90;;
61358;SDS011;47228;46.762;23.598;2023-12-20T04:02:20;26.10;;;14.70;;
61358;SDS011;47228;46.762;23.598;2023-12-20T04:04:48;26.20;;;14.20;;
61358;SDS011;47228;46.762;23.598;2023-12-20T04:07:17;29.30;;;14.60;;
61358;SDS011;47228;46.762;23.598;2023-12-20T04:09:45;31.20;;;16.40;;
61358;SDS011;47228;46.762;23.598;2023-12-20T04:12:14;31.70;;;16.70;;
61358;SDS011;47228;46.762;23.598;2023-12-20T04:14:43;28.30;;;15.70;;
61358;SDS011;47228;46.762;23.598;2023-12-20T04:17:25;31.20;;;16.60;;
61358;SDS011;47228;46.762;23.598;2023-12-20T04:19:53;31.20;;;16.40;;
61358;SDS011;47228;46.762;23.598;2023-12-20T04:22:26;33.10;;;16.90;;
61358;SDS011;47228;46.762;23.598;2023-12-20T04:25:02;27.70;;;15.30;;
61358;SDS011;47228;46.762;23.598;2023-12-20T04:27:32;31.10;;;16.20;;
61358;SDS011;47228;46.762;23.598;2023-12-20T04:30:01;27.60;;;15.50;;
61358;SDS011;47228;46.762;23.598;2023-12-20T04:32:29;30.80;;;15.50;;
61358;SDS011;47228;46.762;23.598;2023-12-20T04:34:58;32.40;;;15.40;;
61358;SDS011;47228;46.762;23.598;2023-12-20T04:37:26;32.50;;;16.40;;
61358;SDS011;47228;46.762;23.598;2023-12-20T04:39:55;29.80;;;15.30;;
61358;SDS011;47228;46.762;23.598;2023-12-20T04:42:23;28.80;;;15.60;;
61358;SDS011;47228;46.762;23.598;2023-12-20T04:44:51;31.00;;;15.70;;
61358;SDS011;47228;46.762;23.598;2023-12-20T04:47:19;30.70;;;15.80;;
61358;SDS011;47228;46.762;23.598;2023-12-20T04:49:47;29.10;;;15.90;;
61358;SDS011;47228;46.762;23.598;2023-12-20T04:52:16;26.40;;;14.20;;
61358;SDS011;47228;46.762;23.598;2023-12-20T04:54:44;25.50;;;14.00;;
61358;SDS011;47228;46.762;23.598;2023-12-20T04:57:13;24.50;;;13.70;;
61358;SDS011;47228;46.762;23.598;2023-12-20T04:59:41;25.20;;;13.10;;
61358;SDS011;47228;46.762;23.598;2023-12-20T05:02:09;24.50;;;14.00;;
61358;SDS011;47228;46.762;23.598;2023-12-20T05:04:38;28.40;;;14.70;;
61358;SDS011;47228;46.762;23.598;2023-12-20T05:07:06;24.20;;;14.00;;
61358;SDS011;47228;46.762;23.598;2023-12-20T05:09:38;25.70;;;14.30;;
61358;SDS011;47228;46.762;23.598;2023-12-20T05:12:07;28.70;;;14.50;;
61358;SDS011;47228;46.762;23.598;2023-12-20T05:14:36;25.00;;;12.80;;
61358;SDS011;47228;46.762;23.598;2023-12-20T05:17:04;26.50;;;14.10;;
61358;SDS011;47228;46.762;23.598;2023-12-20T05:19:32;26.00;;;14.20;;
61358;SDS011;47228;46.762;23.598;2023-12-20T05:22:03;25.50;;;14.10;;
61358;SDS011;47228;46.762;23.598;2023-12-20T05:24:31;25.80;;;14.10;;
61358;SDS011;47228;46.762;23.598;2023-12-20T05:27:00;26.10;;;14.30;;
61358;SDS011;47228;46.762;23.598;2023-12-20T05:29:32;30.30;;;15.30;;
61358;SDS011;47228;46.762;23.598;2023-12-20T05:32:01;25.70;;;14.10;;
61358;SDS011;47228;46.762;23.598;2023-12-20T05:34:31;25.70;;;13.70;;
61358;SDS011;47228;46.762;23.598;2023-12-20T05:37:00;27.40;;;14.50;;
61358;SDS011;47228;46.762;23.598;2023-12-20T05:39:30;23.40;;;13.60;;
61358;SDS011;47228;46.762;23.598;2023-12-20T05:41:59;25.00;;;14.40;;
61358;SDS011;47228;46.762;23.598;2023-12-20T05:44:27;25.80;;;14.50;;
61358;SDS011;47228;46.762;23.598;2023-12-20T05:46:56;25.30;;;13.60;;
61358;SDS011;47228;46.762;23.598;2023-12-20T05:49:24;24.90;;;13.80;;
61358;SDS011;47228;46.762;23.598;2023-12-20T05:51:53;25.40;;;14.50;;
61358;SDS011;47228;46.762;23.598;2023-12-20T05:54:25;30.10;;;14.80;;
61358;SDS011;47228;46.762;23.598;2023-12-20T05:56:56;29.80;;;15.20;;
61358;SDS011;47228;46.762;23.598;2023-12-20T05:59:26;31.90;;;17.00;;
61358;SDS011;47228;46.762;23.598;2023-12-20T06:01:57;32.30;;;17.90;;
61358;SDS011;47228;46.762;23.598;2023-12-20T06:04:26;37.70;;;17.30;;
61358;SDS011;47228;46.762;23.598;2023-12-20T06:06:54;29.00;;;16.20;;
61358;SDS011;47228;46.762;23.598;2023-12-20T06:09:23;32.00;;;17.40;;
61358;SDS011;47228;46.762;23.598;2023-12-20T06:11:52;35.90;;;17.80;;
61358;SDS011;47228;46.762;23.598;2023-12-20T06:14:20;36.50;;;17.20;;
61358;SDS011;47228;46.762;23.598;2023-12-20T06:16:49;33.20;;;16.50;;
61358;SDS011;47228;46.762;23.598;2023-12-20T06:19:21;32.80;;;17.00;;
61358;SDS011;47228;46.762;23.598;2023-12-20T06:21:50;32.50;;;17.50;;
61358;SDS011;47228;46.762;23.598;2023-12-20T06:24:18;32.40;;;17.70;;
61358;SDS011;47228;46.762;23.598;2023-12-20T06:26:46;33.40;;;17.30;;
61358;SDS011;47228;46.762;23.598;2023-12-20T06:29:15;34.00;;;16.60;;
61358;SDS011;47228;46.762;23.598;2023-12-20T06:31:44;32.60;;;17.70;;
61358;SDS011;47228;46.762;23.598;2023-12-20T06:34:12;33.10;;;18.00;;
61358;SDS011;47228;46.762;23.598;2023-12-20T06:36:40;33.30;;;18.80;;
61358;SDS011;47228;46.762;23.598;2023-12-20T06:39:09;33.40;;;17.80;;
61358;SDS011;47228;46.762;23.598;2023-12-20T06:41:37;33.50;;;19.40;;
61358;SDS011;47228;46.762;23.598;2023-12-20T06:44:05;32.40;;;17.10;;
61358;SDS011;47228;46.762;23.598;2023-12-20T06:46:34;35.40;;;19.00;;
61358;SDS011;47228;46.762;23.598;2023-12-20T06:49:02;28.80;;;17.40;;
61358;SDS011;47228;46.762;23.598;2023-12-20T06:51:31;32.50;;;18.70;;
61358;SDS011;47228;46.762;23.598;2023-12-20T06:53:59;32.50;;;18.90;;
61358;SDS011;47228;46.762;23.598;2023-12-20T06:56:27;33.00;;;18.30;;
61358;SDS011;47228;46.762;23.598;2023-12-20T06:58:56;32.30;;;18.80;;
61358;SDS011;47228;46.762;23.598;2023-12-20T07:01:24;35.30;;;18.70;;
61358;SDS011;47228;46.762;23.598;2023-12-20T07:03:52;35.20;;;18.50;;
61358;SDS011;47228;46.762;23.598;2023-12-20T07:06:21;33.40;;;18.70;;
61358;SDS011;47228;46.762;23.598;2023-12-20T07:08:53;34.10;;;18.60;;
61358;SDS011;47228;46.762;23.598;2023-12-20T07:11:21;32.40;;;18.80;;
61358;SDS011;47228;46.762;23.598;2023-12-20T07:13:52;32.70;;;17.60;;
61358;SDS011;47228;46.762;23.598;2023-12-20T07:16:21;32.50;;;17.70;;
61358;SDS011;47228;46.762;23.598;2023-12-20T07:18:50;35.00;;;19.70;;
61358;SDS011;47228;46.762;23.598;2023-12-20T07:21:20;32.80;;;17.80;;
61358;SDS011;47228;46.762;23.598;2023-12-20T07:23:48;31.10;;;17.80;;
61358;SDS011;47228;46.762;23.598;2023-12-20T07:26:17;34.50;;;19.10;;
61358;SDS011;47228;46.762;23.598;2023-12-20T07:28:46;31.70;;;17.40;;
61358;SDS011;47228;46.762;23.598;2023-12-20T07:31:15;34.40;;;19.50;;
61358;SDS011;47228;46.762;23.598;2023-12-20T07:33:44;35.20;;;19.10;;
61358;SDS011;47228;46.762;23.598;2023-12-20T07:36:15;33.40;;;19.50;;
61358;SDS011;47228;46.762;23.598;2023-12-20T07:38:45;34.60;;;19.60;;
61358;SDS011;47228;46.762;23.598;2023-12-20T07:41:13;36.20;;;20.30;;
61358;SDS011;47228;46.762;23.598;2023-12-20T07:43:46;34.20;;;19.20;;
61358;SDS011;47228;46.762;23.598;2023-12-20T07:46:15;36.40;;;19.00;;
61358;SDS011;47228;46.762;23.598;2023-12-20T07:48:43;32.70;;;17.50;;
61358;SDS011;47228;46.762;23.598;2023-12-20T07:51:13;33.30;;;19.60;;
61358;SDS011;47228;46.762;23.598;2023-12-20T07:53:46;33.30;;;19.20;;
61358;SDS011;47228;46.762;23.598;2023-12-20T07:56:16;33.20;;;18.70;;
61358;SDS011;47228;46.762;23.598;2023-12-20T07:58:45;36.30;;;19.00;;
61358;SDS011;47228;46.762;23.598;2023-12-20T08:01:20;39.70;;;20.90;;
61358;SDS011;47228;46.762;23.598;2023-12-20T08:03:50;35.40;;;19.40;;
61358;SDS011;47228;46.762;23.598;2023-12-20T08:06:19;34.70;;;18.50;;
61358;SDS011;47228;46.762;23.598;2023-12-20T08:08:48;38.20;;;19.70;;
61358;SDS011;47228;46.762;23.598;2023-12-20T08:11:28;37.30;;;20.60;;
61358;SDS011;47228;46.762;23.598;2023-12-20T08:13:57;41.90;;;22.00;;
61358;SDS011;47228;46.762;23.598;2023-12-20T08:16:26;41.00;;;21.80;;
61358;SDS011;47228;46.762;23.598;2023-12-20T08:18:55;36.60;;;19.10;;
61358;SDS011;47228;46.762;23.598;2023-12-20T08:21:23;44.30;;;21.30;;
61358;SDS011;47228;46.762;23.598;2023-12-20T08:23:51;44.90;;;24.00;;
61358;SDS011;47228;46.762;23.598;2023-12-20T08:26:20;37.30;;;19.70;;
61358;SDS011;47228;46.762;23.598;2023-12-20T08:28:52;37.50;;;20.30;;
61358;SDS011;47228;46.762;23.598;2023-12-20T08:31:20;41.30;;;21.00;;
61358;SDS011;47228;46.762;23.598;2023-12-20T08:33:49;41.40;;;22.00;;
61358;SDS011;47228;46.762;23.598;2023-12-20T08:36:18;40.70;;;20.90;;
61358;SDS011;47228;46.762;23.598;2023-12-20T08:38:49;39.70;;;21.90;;
61358;SDS011;47228;46.762;23.598;2023-12-20T08:41:18;43.80;;;21.00;;
61358;SDS011;47228;46.762;23.598;2023-12-20T08:43:46;44.80;;;22.00;;
61358;SDS011;47228;46.762;23.598;2023-12-20T08:46:15;43.50;;;21.70;;
61358;SDS011;47228;46.762;23.598;2023-12-20T08:48:43;44.50;;;22.50;;
61358;SDS011;47228;46.762;23.598;2023-12-20T08:51:12;46.00;;;23.80;;
61358;SDS011;47228;46.762;23.598;2023-12-20T08:53:41;42.00;;;21.40;;
61358;SDS011;47228;46.762;23.598;2023-12-20T08:56:09;40.50;;;22.10;;
61358;SDS011;47228;46.762;23.598;2023-12-20T08:58:37;45.20;;;24.00;;
61358;SDS011;47228;46.762;23.598;2023-12-20T09:01:09;43.00;;;22.80;;
61358;SDS011;47228;46.762;23.598;2023-12-20T09:03:44;46.30;;;23.20;;
61358;SDS011;47228;46.762;23.598;2023-12-20T09:06:12;45.90;;;21.30;;
61358;SDS011;47228;46.762;23.598;2023-12-20T09:08:41;47.50;;;23.30;;
61358;SDS011;47228;46.762;23.598;2023-12-20T09:11:09;49.00;;;23.90;;
61358;SDS011;47228;46.762;23.598;2023-12-20T09:13:38;46.70;;;22.40;;
61358;SDS011;47228;46.762;23.598;2023-12-20T09:16:06;50.60;;;26.00;;
61358;SDS011;47228;46.762;23.598;2023-12-20T09:18:34;45.50;;;23.10;;
61358;SDS011;47228;46.762;23.598;2023-12-20T09:21:03;44.20;;;23.10;;
61358;SDS011;47228;46.762;23.598;2023-12-20T09:23:31;44.40;;;22.70;;
61358;SDS011;47228;46.762;23.598;2023-12-20T09:25:59;44.80;;;23.10;;
61358;SDS011;47228;46.762;23.598;2023-12-20T09:28:27;53.00;;;26.10;;
61358;SDS011;47228;46.762;23.598;2023-12-20T09:30:55;50.30;;;24.80;;
61358;SDS011;47228;46.762;23.598;2023-12-20T09:33:24;48.20;;;24.30;;
61358;SDS011;47228;46.762;23.598;2023-12-20T09:35:52;51.60;;;24.40;;
61358;SDS011;47228;46.762;23.598;2023-12-20T09:38:21;48.30;;;25.70;;
61358;SDS011;47228;46.762;23.598;2023-12-20T09:40:50;47.90;;;24.10;;
61358;SDS011;47228;46.762;23.598;2023-12-20T09:43:19;44.80;;;23.10;;
61358;SDS011;47228;46.762;23.598;2023-12-20T09:45:52;39.90;;;22.20;;
61358;SDS011;47228;46.762;23.598;2023-12-20T09:48:22;37.20;;;21.00;;
61358;SDS011;47228;46.762;23.598;2023-12-20T09:50:52;35.40;;;21.20;;
61358;SDS011;47228;46.762;23.598;2023-12-20T09:53:21;37.40;;;21.70;;
61358;SDS011;47228;46.762;23.598;2023-12-20T09:55:51;37.30;;;21.60;;
61358;SDS011;47228;46.762;23.598;2023-12-20T09:58:21;39.40;;;22.40;;
61358;SDS011;47228;46.762;23.598;2023-12-20T10:00:49;40.90;;;23.20;;
61358;SDS011;47228;46.762;23.598;2023-12-20T10:03:18;40.40;;;22.40;;
61358;SDS011;47228;46.762;23.598;2023-12-20T10:05:56;38.80;;;23.20;;
61358;SDS011;47228;46.762;23.598;2023-12-20T10:08:28;40.00;;;22.50;;
61358;SDS011;47228;46.762;23.598;2023-12-20T10:11:04;40.00;;;22.50;;
61358;SDS011;47228;46.762;23.598;2023-12-20T10:13:39;37.70;;;22.70;;
61358;SDS011;47228;46.762;23.598;2023-12-20T10:16:11;40.10;;;22.70;;
61358;SDS011;47228;46.762;23.598;2023-12-20T10:18:39;35.60;;;21.80;;
61358;SDS011;47228;46.762;23.598;2023-12-20T10:21:08;42.70;;;23.90;;
61358;SDS011;47228;46.762;23.598;2023-12-20T10:23:38;40.60;;;22.20;;
61358;SDS011;47228;46.762;23.598;2023-12-20T10:26:07;40.80;;;22.80;;
61358;SDS011;47228;46.762;23.598;2023-12-20T10:28:36;37.50;;;22.00;;
61358;SDS011;47228;46.762;23.598;2023-12-20T10:31:06;39.10;;;22.50;;
61358;SDS011;47228;46.762;23.598;2023-12-20T10:33:35;40.40;;;22.10;;
61358;SDS011;47228;46.762;23.598;2023-12-20T10:36:03;37.00;;;22.70;;
61358;SDS011;47228;46.762;23.598;2023-12-20T10:38:32;37.00;;;20.60;;
61358;SDS011;47228;46.762;23.598;2023-12-20T10:41:01;40.70;;;22.60;;
61358;SDS011;47228;46.762;23.598;2023-12-20T10:43:32;38.40;;;21.70;;
61358;SDS011;47228;46.762;23.598;2023-12-20T10:46:03;35.70;;;22.10;;
61358;SDS011;47228;46.762;23.598;2023-12-20T10:48:32;39.10;;;22.20;;
61358;SDS011;47228;46.762;23.598;2023-12-20T10:51:00;43.20;;;23.50;;
61358;SDS011;47228;46.762;23.598;2023-12-20T10:53:29;39.40;;;23.10;;
61358;SDS011;47228;46.762;23.598;2023-12-20T10:55:57;36.10;;;21.40;;
61358;SDS011;47228;46.762;23.598;2023-12-20T10:58:30;40.50;;;23.10;;
61358;SDS011;47228;46.762;23.598;2023-12-20T11:01:01;39.80;;;24.20;;
61358;SDS011;47228;46.762;23.598;2023-12-20T11:03:32;34.90;;;22.50;;
61358;SDS011;47228;46.762;23.598;2023-12-20T11:08:49;37.60;;;22.90;;
61358;SDS011;47228;46.762;23.598;2023-12-20T11:11:28;39.50;;;22.70;;
61358;SDS011;47228;46.762;23.598;2023-12-20T11:14:16;41.10;;;23.80;;
61358;SDS011;47228;46.762;23.598;2023-12-20T11:17:09;39.40;;;23.80;;
61358;SDS011;47228;46.762;23.598;2023-12-20T11:20:34;42.50;;;25.70;;
61358;SDS011;47228;46.762;23.598;2023-12-20T11:22:36;47.30;;;25.00;;
61358;SDS011;47228;46.762;23.598;2023-12-20T11:25:09;43.10;;;25.70;;
61358;SDS011;47228;46.762;23.598;2023-12-20T11:27:41;43.30;;;26.50;;
61358;SDS011;47228;46.762;23.598;2023-12-20T11:30:13;45.80;;;24.90;;
61358;SDS011;47228;46.762;23.598;2023-12-20T11:32:42;40.40;;;25.60;;
61358;SDS011;47228;46.762;23.598;2023-12-20T11:37:39;44.40;;;25.00;;
61358;SDS011;47228;46.762;23.598;2023-12-20T11:40:16;48.50;;;24.90;;
61358;SDS011;47228;46.762;23.598;2023-12-20T11:42:45;47.00;;;27.50;;
61358;SDS011;47228;46.762;23.598;2023-12-20T11:45:17;50.80;;;27.70;;
61358;SDS011;47228;46.762;23.598;2023-12-20T11:50:20;43.30;;;24.50;;
61358;SDS011;47228;46.762;23.598;2023-12-20T11:52:50;40.10;;;25.10;;
61358;SDS011;47228;46.762;23.598;2023-12-20T11:55:19;45.10;;;26.50;;
61358;SDS011;47228;46.762;23.598;2023-12-20T11:57:48;47.60;;;27.10;;
61358;SDS011;47228;46.762;23.598;2023-12-20T12:00:16;45.10;;;26.70;;
61358;SDS011;47228;46.762;23.598;2023-12-20T12:02:55;51.40;;;27.90;;
61358;SDS011;47228;46.762;23.598;2023-12-20T12:05:30;45.80;;;28.20;;
61358;SDS011;47228;46.762;23.598;2023-12-20T12:07:59;44.20;;;25.70;;
61358;SDS011;47228;46.762;23.598;2023-12-20T12:10:27;61.00;;;30.20;;
61358;SDS011;47228;46.762;23.598;2023-12-20T12:12:59;51.60;;;28.60;;
61358;SDS011;47228;46.762;23.598;2023-12-20T12:15:29;45.70;;;28.20;;
61358;SDS011;47228;46.762;23.598;2023-12-20T12:17:57;46.70;;;27.40;;
61358;SDS011;47228;46.762;23.598;2023-12-20T12:20:27;43.30;;;26.00;;
61358;SDS011;47228;46.762;23.598;2023-12-20T12:23:02;51.10;;;28.70;;
61358;SDS011;47228;46.762;23.598;2023-12-20T12:25:32;47.20;;;29.30;;
61358;SDS011;47228;46.762;23.598;2023-12-20T12:28:07;44.40;;;27.30;;
61358;SDS011;47228;46.762;23.598;2023-12-20T12:30:37;44.10;;;25.50;;
61358;SDS011;47228;46.762;23.598;2023-12-20T12:33:12;45.40;;;24.70;;
61358;SDS011;47228;46.762;23.598;2023-12-20T12:35:41;47.30;;;27.00;;
61358;SDS011;47228;46.762;23.598;2023-12-20T12:38:09;40.50;;;24.20;;
61358;SDS011;47228;46.762;23.598;2023-12-20T12:40:38;41.60;;;25.60;;
61358;SDS011;47228;46.762;23.598;2023-12-20T12:43:07;48.30;;;27.40;;
61358;SDS011;47228;46.762;23.598;2023-12-20T12:45:35;47.40;;;26.00;;
61358;SDS011;47228;46.762;23.598;2023-12-20T12:48:04;44.50;;;25.50;;
61358;SDS011;47228;46.762;23.598;2023-12-20T12:50:35;46.80;;;28.40;;
61358;SDS011;47228;46.762;23.598;2023-12-20T12:53:03;49.30;;;28.50;;
61358;SDS011;47228;46.762;23.598;2023-12-20T12:55:31;50.60;;;29.10;;
61358;SDS011;47228;46.762;23.598;2023-12-20T12:58:00;50.20;;;29.80;;
61358;SDS011;47228;46.762;23.598;2023-12-20T13:00:28;44.20;;;29.10;;
61358;SDS011;47228;46.762;23.598;2023-12-20T13:02:57;47.00;;;28.70;;
61358;SDS011;47228;46.762;23.598;2023-12-20T13:05:25;48.30;;;28.60;;
61358;SDS011;47228;46.762;23.598;2023-12-20T13:07:53;52.30;;;29.00;;
61358;SDS011;47228;46.762;23.598;2023-12-20T13:10:21;46.80;;;27.40;;
61358;SDS011;47228;46.762;23.598;2023-12-20T13:12:50;46.50;;;27.40;;
61358;SDS011;47228;46.762;23.598;2023-12-20T13:15:18;43.90;;;28.40;;
61358;SDS011;47228;46.762;23.598;2023-12-20T13:17:48;48.40;;;28.90;;
61358;SDS011;47228;46.762;23.598;2023-12-20T13:20:17;52.90;;;30.70;;
61358;SDS011;47228;46.762;23.598;2023-12-20T13:22:46;45.10;;;27.60;;
61358;SDS011;47228;46.762;23.598;2023-12-20T13:25:14;45.90;;;28.00;;
61358;SDS011;47228;46.762;23.598;2023-12-20T13:27:43;44.30;;;26.70;;
61358;SDS011;47228;46.762;23.598;2023-12-20T13:30:12;46.20;;;26.70;;
61358;SDS011;47228;46.762;23.598;2023-12-20T13:32:41;44.20;;;27.20;;
61358;SDS011;47228;46.762;23.598;2023-12-20T13:35:11;45.20;;;28.70;;
61358;SDS011;47228;46.762;23.598;2023-12-20T13:37:40;45.30;;;28.10;;
61358;SDS011;47228;46.762;23.598;2023-12-20T13:40:08;49.50;;;29.10;;
61358;SDS011;47228;46.762;23.598;2023-12-20T13:42:37;46.80;;;27.50;;
61358;SDS011;47228;46.762;23.598;2023-12-20T13:45:05;42.60;;;26.90;;
61358;SDS011;47228;46.762;23.598;2023-12-20T13:47:34;44.70;;;26.00;;
61358;SDS011;47228;46.762;23.598;2023-12-20T13:50:03;45.10;;;27.30;;
61358;SDS011;47228;46.762;23.598;2023-12-20T13:52:33;44.40;;;27.70;;
61358;SDS011;47228;46.762;23.598;2023-12-20T13:55:06;45.00;;;28.00;;
61358;SDS011;47228;46.762;23.598;2023-12-20T13:57:36;47.90;;;30.30;;
61358;SDS011;47228;46.762;23.598;2023-12-20T14:00:22;47.70;;;30.00;;
61358;SDS011;47228;46.762;23.598;2023-12-20T14:02:51;55.50;;;33.60;;
61358;SDS011;47228;46.762;23.598;2023-12-20T14:05:19;53.80;;;31.40;;
61358;SDS011;47228;46.762;23.598;2023-12-20T14:07:52;49.80;;;32.20;;
61358;SDS011;47228;46.762;23.598;2023-12-20T14:10:20;53.80;;;31.30;;
61358;SDS011;47228;46.762;23.598;2023-12-20T14:12:49;48.10;;;30.70;;
61358;SDS011;47228;46.762;23.598;2023-12-20T14:15:17;47.30;;;30.10;;
61358;SDS011;47228;46.762;23.598;2023-12-20T14:17:46;51.20;;;32.00;;
61358;SDS011;47228;46.762;23.598;2023-12-20T14:20:14;51.10;;;30.50;;
61358;SDS011;47228;46.762;23.598;2023-12-20T14:22:43;42.50;;;28.50;;
61358;SDS011;47228;46.762;23.598;2023-12-20T14:25:12;47.30;;;30.20;;
61358;SDS011;47228;46.762;23.598;2023-12-20T14:27:42;50.10;;;31.30;;
61358;SDS011;47228;46.762;23.598;2023-12-20T14:30:12;45.60;;;30.70;;
61358;SDS011;47228;46.762;23.598;2023-12-20T14:32:43;49.30;;;31.10;;